Terminal Aerodrome Forecast
Issued by NWS

Home | Current Version | Previous Version | Text Only | Print | Product List | Glossary On
Versions: 1 2 3 4 5 6 7 8 9 10 11 12 13 14 15 16 17
000
FTUS43 KMQT 250000 AAB
TAFSAW
TAF AMD
KSAW 250051Z 2501/2524 12010KT 3SM -SN OVC008
      TEMPO 2501/2505 1SM -SN OVC003
     FM251500 20005KT P6SM OVC010
     FM252100 05008KT 3SM -RA BR OVC007
      AMD LTD TO CLD VIS AND WIND 2502/2510=

USA.gov is the U.S. government's official web portal to all federal, state and local government web resources and services.